Terminal Aerodrome Forecast
Issued by NWS Mt. Holly, NJ

Home | Current Version | Previous Version | Text Only | Print | Product List | Glossary On
Versions: 1 2 3 4 5 6 7 8 9 10 11 12 13 14 15 16 17 18 19 20
000
FTUS41 KPHI 281323 AAB
TAFILG
TAF AMD
KILG 281323Z 2813/2912 26005KT P6SM OVC011
      TEMPO 2814/2815 SCT012 BKN200
     FM281500 22008KT P6SM FEW050 SCT200
     FM281800 19009KT P6SM SCT050
      TEMPO 2820/2824 BKN060
     FM290300 33005KT P6SM SCT050=

USA.gov is the U.S. government's official web portal to all federal, state and local government web resources and services.